Stations météo

réclame
Mon MeteoGroup
Kvikkjokk Arrenjarka A, Suède (2119): Température de l'air: 11.07.2018 13:00:00 - 17.07.2018 13:00:00 (CEST)Kvikkjokk Arrenjarka A, Suède (2119): Vitesse du vent & gusts: 11.07.2018 13:00:00 - 17.07.2018 13:00:00 (CEST)Kvikkjokk Arrenjarka A, Suède (2119): Direction du vent: 11.07.2018 13:00:00 - 17.07.2018 13:00:00 (CEST)Kvikkjokk Arrenjarka A, Suède (2119): reduced air pressure: 11.07.2018 13:00:00 - 17.07.2018 13:00:00 (CEST)Kvikkjokk Arrenjarka A, Suède (2119): visibility: 11.07.2018 13:00:00 - 17.07.2018 13:00:00 (CEST)Kvikkjokk Arrenjarka A, Suède (2119): Quantités de précipitations: 11.07.2018 13:00:00 - 17.07.2018 13:00:00 (CEST)
Date & Time tt [°C] ff [km/h] ff [knt] fx [km/h] fx [knt] dd ppp [hPa] vv [km] rr [mm]
17.07.2018 13:00:00 28,7 4 2 13 7 SE 1015,8 50 0,0
17.07.2018 12:00:00 29,8 5 3 14 7 SE 1015,9 45 0,0
17.07.2018 11:00:00 27,2 6 4 13 7 SE 1016,4 43 0,0
17.07.2018 10:00:00 25,4 5 3 10 5 SE 1017,0 48 0,0
17.07.2018 09:00:00 22,6 5 3 8 4 SSE 1017,8 21 0,0
17.07.2018 08:00:00 20,9 3 2 7 4 SSE 1018,1 50 0,0
17.07.2018 07:00:00 18,7 3 2 6 3 SE 1018,4 50 0,0
17.07.2018 06:00:00 17,6 2 1 4 2 SE 1018,6 50 0,0
17.07.2018 05:00:00 13,8 2 1 6 3 N 1019,1 50 0,0
17.07.2018 04:00:00 12,4 3 1 6 3 NNW 1019,1 50 0,0
17.07.2018 03:00:00 11,8 3 2 - - N 1018,9 50 0,0
17.07.2018 02:00:00 12,3 - - - - - 1018,5 - 0,0
17.07.2018 01:00:00 15,9 - - - - - 1017,6 - 0,0
17.07.2018 00:00:00 14,8 - - - - - 1017,3 - 0,0
16.07.2018 23:00:00 17,7 9 5 15 8 NW 1016,5 50 0,0
16.07.2018 22:00:00 17,4 6 3 9 5 NW 1016,1 50 0,0
16.07.2018 21:00:00 22,0 1 1 7 4 N 1015,1 50 0,0
16.07.2018 20:00:00 26,8 5 3 13 7 S 1014,4 50 0,0
16.07.2018 19:00:00 27,1 6 3 14 8 S 1014,2 47 0,0
16.07.2018 18:00:00 27,6 7 4 17 9 S 1014,0 49 0,0
16.07.2018 17:00:00 28,1 8 4 21 12 SSW 1014,0 35 0,0
16.07.2018 16:00:00 27,7 8 4 19 10 SSW 1014,2 50 0,0
16.07.2018 15:00:00 27,7 9 5 21 11 SSW 1014,3 50 0,0
16.07.2018 14:00:00 26,6 5 3 15 8 S 1014,7 44 0,0
16.07.2018 13:00:00 26,5 6 4 14 7 SSE 1014,9 47 0,0
16.07.2018 12:00:00 25,1 5 3 11 6 SSE 1015,3 34 0,0
16.07.2018 11:00:00 22,7 5 3 11 6 SSE 1015,8 50 0,0
16.07.2018 10:00:00 21,5 4 2 9 5 ESE 1015,9 50 0,0
16.07.2018 09:00:00 20,0 4 2 13 7 SE 1016,2 50 0,0
16.07.2018 08:00:00 18,1 4 2 8 4 SE 1016,6 50 0,0
16.07.2018 07:00:00 16,3 4 2 9 5 SSE 1016,9 50 0,0
16.07.2018 06:00:00 15,0 3 1 11 6 SSW 1017,1 50 0,0
16.07.2018 05:00:00 9,8 3 1 11 6 WSW 1017,6 50 0,0
16.07.2018 04:00:00 7,7 6 3 9 5 WNW 1017,8 50 0,0
16.07.2018 03:00:00 11,4 3 1 19 10 W 1017,2 50 0,0
16.07.2018 02:00:00 11,1 5 3 15 8 WSW 1017,0 50 0,0
16.07.2018 01:00:00 9,0 4 2 12 6 NNW 1017,0 50 0,0
16.07.2018 00:00:00 13,1 3 1 15 8 WSW 1016,1 50 0,0
15.07.2018 23:00:00 16,0 8 4 17 9 W 1015,1 50 0,0
15.07.2018 22:00:00 17,3 7 4 20 11 W 1014,5 50 0,0
15.07.2018 21:00:00 18,4 9 5 24 13 WSW 1013,9 50 0,0
15.07.2018 20:00:00 19,1 12 7 27 15 W 1013,4 50 0,0
15.07.2018 19:00:00 20,8 10 6 31 17 WSW 1012,5 50 0,0
15.07.2018 18:00:00 22,5 13 7 31 17 W 1012,2 50 0,0
15.07.2018 17:00:00 22,6 13 7 32 18 W 1012,1 50 0,0
15.07.2018 16:00:00 23,0 11 6 26 14 WSW 1011,7 50 0,0
15.07.2018 15:00:00 20,2 14 7 32 18 SW 1012,1 50 0,0
15.07.2018 14:00:00 22,4 11 6 26 14 WSW 1011,7 50 0,0
15.07.2018 13:00:00 21,4 11 6 25 13 WSW 1011,5 50 0,0
15.07.2018 12:00:00 20,5 10 5 21 11 WSW 1011,6 50 0,0
15.07.2018 11:00:00 19,9 7 4 14 8 SSW 1011,3 50 0,0
15.07.2018 10:00:00 18,9 5 3 11 6 WSW 1011,3 50 0,0
15.07.2018 09:00:00 17,3 6 3 12 6 SW 1011,3 50 0,0
15.07.2018 08:00:00 16,0 4 2 10 6 SW 1011,2 50 0,0
15.07.2018 07:00:00 15,2 2 1 6 3 N 1011,1 50 0,0
15.07.2018 06:00:00 13,2 3 1 6 3 WNW 1011,3 50 0,0
15.07.2018 05:00:00 9,3 3 2 10 6 N 1011,9 50 0,0
15.07.2018 04:00:00 5,1 6 3 8 5 NW 1012,8 40 0,0
15.07.2018 03:00:00 4,9 6 3 12 7 NW 1012,5 50 0,0
15.07.2018 02:00:00 6,0 7 4 10 5 NW 1012,2 50 0,0
15.07.2018 01:00:00 7,2 6 4 10 5 NW 1011,8 50 0,0
15.07.2018 00:00:00 9,4 6 3 9 5 NW 1011,4 50 0,0
14.07.2018 23:00:00 12,5 5 3 11 6 WNW 1010,8 50 0,0
14.07.2018 22:00:00 17,0 6 3 16 9 NW 1009,9 50 0,0
14.07.2018 21:00:00 20,4 6 3 19 10 WNW 1009,2 50 0,0
14.07.2018 20:00:00 23,0 8 5 22 12 NW 1008,7 50 0,0
14.07.2018 19:00:00 25,0 6 4 21 11 W 1008,1 50 0,0
14.07.2018 18:00:00 24,5 10 5 26 14 WSW 1008,2 50 0,0
14.07.2018 17:00:00 25,9 8 4 23 12 W 1008,2 50 0,0
14.07.2018 16:00:00 25,3 8 4 19 10 SW 1008,2 45 0,0
14.07.2018 15:00:00 24,8 9 5 23 12 S 1008,5 50 0,0
14.07.2018 14:00:00 25,1 10 6 23 12 SW 1008,9 46 0,0
14.07.2018 13:00:00 24,9 4 2 13 7 S 1009,2 50 0,0
14.07.2018 12:00:00 24,2 5 3 11 6 S 1009,7 49 0,0
14.07.2018 11:00:00 22,5 3 2 9 5 SW 1010,3 50 0,0
14.07.2018 10:00:00 21,4 4 2 8 4 SE 1010,9 50 0,0
14.07.2018 09:00:00 20,1 3 2 9 5 SE 1011,4 50 0,0
14.07.2018 08:00:00 16,8 3 2 7 4 SE 1012,3 50 0,0
14.07.2018 07:00:00 15,8 5 3 9 5 SW 1012,6 50 0,0
14.07.2018 06:00:00 14,4 2 1 4 2 NNW 1012,9 50 0,0
14.07.2018 05:00:00 12,4 3 1 7 4 NNW 1013,3 50 0,0
14.07.2018 04:00:00 9,5 5 3 8 4 NW 1013,7 37 0,0
14.07.2018 03:00:00 11,2 3 2 6 3 WNW 1013,7 50 0,0
14.07.2018 02:00:00 11,5 3 2 6 3 NW 1013,9 50 0,0
14.07.2018 01:00:00 13,2 3 2 6 4 N 1013,5 50 0,0
14.07.2018 00:00:00 15,1 2 1 8 4 WNW 1013,0 50 0,0
13.07.2018 23:00:00 16,2 5 3 9 5 NW 1012,7 50 0,0
13.07.2018 22:00:00 17,3 2 1 10 5 NE 1012,6 50 0,0
13.07.2018 21:00:00 20,4 3 2 10 5 W 1012,1 50 0,0
13.07.2018 20:00:00 20,3 5 3 15 8 S 1012,3 50 0,0
13.07.2018 19:00:00 22,2 5 3 17 9 S 1012,1 50 0,0
13.07.2018 18:00:00 21,7 7 4 20 11 SSW 1012,4 50 0,0
13.07.2018 17:00:00 22,5 7 4 24 13 SE 1011,9 50 0,0
13.07.2018 16:00:00 22,4 12 6 31 17 S 1011,6 50 0,0
13.07.2018 15:00:00 26,1 7 4 12 7 SE 1010,8 50 0,0
13.07.2018 14:00:00 26,5 8 5 16 9 SE 1011,1 42 0,0
13.07.2018 13:00:00 25,7 6 3 14 8 SE 1011,6 50 0,0
13.07.2018 12:00:00 25,1 6 3 11 6 E 1012,4 47 0,0
13.07.2018 11:00:00 23,7 6 3 11 6 ESE 1013,0 45 0,0
13.07.2018 10:00:00 22,1 5 3 10 6 SE 1013,4 50 0,0
13.07.2018 09:00:00 20,4 7 4 11 6 SW 1013,8 50 0,0
13.07.2018 08:00:00 18,2 3 2 6 3 SE 1014,5 50 0,0
13.07.2018 07:00:00 16,4 2 1 4 2 ESE 1014,9 50 0,0
13.07.2018 06:00:00 14,9 1 1 4 2 ESE 1015,2 50 0,0
13.07.2018 05:00:00 8,9 3 2 8 4 N 1016,1 50 0,0
13.07.2018 04:00:00 7,2 4 2 9 5 NNW 1016,5 50 0,0
13.07.2018 03:00:00 7,7 4 2 11 6 NNW 1016,3 49 0,0
13.07.2018 02:00:00 8,4 5 3 8 5 NW 1016,1 50 0,0
13.07.2018 01:00:00 11,5 3 2 12 6 NNW 1015,5 50 0,0
13.07.2018 00:00:00 17,9 6 4 22 12 W 1014,3 50 0,0
12.07.2018 23:00:00 19,4 10 5 23 12 WSW 1014,1 50 0,0
12.07.2018 22:00:00 20,4 8 4 19 10 W 1013,6 50 0,0
12.07.2018 21:00:00 22,1 8 4 23 13 W 1013,2 50 0,0
12.07.2018 20:00:00 24,2 11 6 24 13 NW 1012,7 50 0,0
12.07.2018 19:00:00 25,3 5 3 14 8 SSE 1012,6 50 0,0
12.07.2018 18:00:00 27,1 7 4 15 8 E 1012,5 50 0,0
12.07.2018 17:00:00 26,6 8 4 17 9 SE 1012,9 50 0,0
12.07.2018 16:00:00 27,6 6 4 19 10 E 1013,2 48 0,0
12.07.2018 15:00:00 26,9 8 4 19 10 SE 1013,7 43 0,0
12.07.2018 14:00:00 26,8 10 5 21 12 SE 1014,2 48 0,0
12.07.2018 13:00:00 26,4 9 5 22 12 ESE 1014,7 49 0,0
12.07.2018 12:00:00 26,7 9 5 25 14 E 1015,0 24 0,0
12.07.2018 11:00:00 25,5 9 5 24 13 E 1015,4 8 0,0
12.07.2018 10:00:00 25,4 7 4 17 9 ESE 1015,5 25 0,0
12.07.2018 09:00:00 24,7 6 4 14 8 E 1016,0 16 0,0
12.07.2018 08:00:00 21,4 5 3 9 5 SE 1016,9 50 0,0
12.07.2018 07:00:00 19,8 2 1 6 3 SE 1017,5 50 0,0
12.07.2018 06:00:00 17,5 3 1 5 3 NE 1018,1 50 0,0
12.07.2018 05:00:00 13,9 3 2 8 5 NNW 1018,9 50 0,0
12.07.2018 04:00:00 12,5 6 4 11 6 NW 1019,3 50 0,0
12.07.2018 03:00:00 14,2 6 3 11 6 NNW 1019,1 50 0,0
12.07.2018 02:00:00 12,8 6 4 11 6 NNW 1019,3 50 0,0
12.07.2018 01:00:00 14,3 5 3 11 6 NNW 1019,3 50 0,0
12.07.2018 00:00:00 15,9 3 2 8 4 NNW 1018,8 50 0,0
11.07.2018 23:00:00 18,2 4 2 7 4 NW 1018,4 50 0,0
11.07.2018 22:00:00 20,7 4 2 5 3 NW 1017,9 50 0,0
11.07.2018 21:00:00 22,3 3 2 14 7 WNW 1017,6 50 0,0
11.07.2018 20:00:00 23,9 7 4 20 11 SE 1017,3 50 0,0
11.07.2018 19:00:00 25,4 7 4 14 8 SSE 1017,2 50 0,0
11.07.2018 18:00:00 26,1 2 1 9 5 ENE 1017,4 50 0,0
11.07.2018 17:00:00 26,1 4 2 17 9 ESE 1017,9 19 0,0
11.07.2018 16:00:00 28,2 7 4 16 9 SE 1017,8 18 0,0
11.07.2018 15:00:00 28,5 5 3 15 8 ESE 1018,5 16 0,0
11.07.2018 14:00:00 28,1 6 3 17 9 SSW 1018,9 15 0,0
11.07.2018 13:00:00 27,2 5 3 11 6 SSE 1019,6 9 0,0

tt = Température de l'air
ff = Vitesse du vent
fx = gusts
dd = Direction du vent
ppp = reduced air pressure
vv = visibility
rr = Quantités de précipitations

stations d'obs. à proximité